Adair, IL

6:31 AM CDT on May 05, 2015 (GMT -0500)
Astoria | | Change Station
CLOSE
Current Station
Personal Weather Station
Location: Astoria, IL
Elevation: 712 ft
Nearby Weather Stations

Elev 712 ft 40.23 °N, 90.35 °W | Updated 3 minutes ago

Overcast
Overcast
61.9 °F
Feels Like 61.9 °F
N
2.0
Wind Variable Wind from SE
Gusts 4.0 mph

Today
High -- | Low -- °F
--% Chance of Precip.
Yesterday
High -- | Low -- °F
Precip. -- in
5:56 AM 8:00 PM
Full, 98% visible
Pressure 30.13 in
Visibility 4.0 miles
Clouds Scattered Clouds 4900 ft
Scattered Clouds 7000 ft
Mostly Cloudy 9000 ft
Dew Point 61 °F
Humidity 97%
Rainfall 0.00 in
Snow Depth Not available.
UV 0 out of 12
Pollen 1.50 out of 12
Air Quality Not available.
Flu Activity Local Activity
METAR KMQB 051055Z AUTO 13003KT 4SM BR SCT049 SCT070 BKN090 16/16 A3013 RMK AO2 T01630161

More Conditions Fewer Conditions

Pressure 30.13 in
Visibility 4.0 miles
Clouds Scattered Clouds 4900 ft
Scattered Clouds 7000 ft
Mostly Cloudy 9000 ft
Dew Point 61 °F
Humidity 97%
Rainfall 0.00 in
Snow Depth Not available.
UV 0 out of 12
Pollen 1.50 out of 12
Air Quality Not available.
Flu Activity Local Activity
METAR KMQB 051055Z AUTO 13003KT 4SM BR SCT049 SCT070 BKN090 16/16 A3013 RMK AO2 T01630161

More Conditions Fewer Conditions

Nepal has a long way to go to dig out and rebuild from a devastating earthquake. We have teamed up with several charities and organizations to make contributing to the relief effort as easy as possible.
How you can help: Portlight Strategies | Red Cross

10-Day Weather Forecast

Almanac

Astronomy

May. 05, 2015 Rise Set
Actual Time
Civil Twilight
Nautical Twilight
Astronomical Twilight
Moon
Length of Visible Light
Length of Day
Tomorrow will be .
, % of the Moon is Illuminated

Today's Extremes

State Highs State Lows

Community

WunderPhotos

Upload Photos

1,818,831 photos uploaded!

WunderBlogs® & News

Nearby

Air Quality

  Air Quality AQ Index Pollutant
Not available.

Snow Depth

Station Depth Elevation

Earthquake Activity

City Distance Mag. Time & Date
Minimum magnitude displayed is 2.5.

Coastal Water Temperatures

Place Temperature

Stations

Nearby Weather Stations

Station Location Temp. Windchill Dew Point Humidity Wind Precip. Elev Updated Type